sensor_id;sensor_type;location;lat;lon;timestamp;P1;durP1;ratioP1;P2;durP2;ratioP2
28304;SDS011;15569;42.652;23.040;2022-09-12T00:00:09;24.00;;;21.60;;
28304;SDS011;15569;42.652;23.040;2022-09-12T00:02:35;23.35;;;20.95;;
28304;SDS011;15569;42.652;23.040;2022-09-12T00:05:01;21.85;;;19.67;;
28304;SDS011;15569;42.652;23.040;2022-09-12T00:07:27;20.27;;;18.13;;
28304;SDS011;15569;42.652;23.040;2022-09-12T00:09:52;21.73;;;19.42;;
28304;SDS011;15569;42.652;23.040;2022-09-12T00:12:18;20.45;;;18.40;;
28304;SDS011;15569;42.652;23.040;2022-09-12T00:14:43;22.63;;;17.30;;
28304;SDS011;15569;42.652;23.040;2022-09-12T00:17:08;21.80;;;17.20;;
28304;SDS011;15569;42.652;23.040;2022-09-12T00:19:34;21.45;;;19.00;;
28304;SDS011;15569;42.652;23.040;2022-09-12T00:21:59;18.60;;;14.90;;
28304;SDS011;15569;42.652;23.040;2022-09-12T00:24:26;16.25;;;14.60;;
28304;SDS011;15569;42.652;23.040;2022-09-12T00:26:51;17.65;;;15.85;;
28304;SDS011;15569;42.652;23.040;2022-09-12T00:29:18;12.65;;;11.32;;
28304;SDS011;15569;42.652;23.040;2022-09-12T00:31:45;15.43;;;13.82;;
28304;SDS011;15569;42.652;23.040;2022-09-12T00:34:10;15.25;;;13.60;;
28304;SDS011;15569;42.652;23.040;2022-09-12T00:36:37;15.77;;;14.18;;
28304;SDS011;15569;42.652;23.040;2022-09-12T00:39:04;16.90;;;14.95;;
28304;SDS011;15569;42.652;23.040;2022-09-12T00:41:31;17.27;;;12.27;;
28304;SDS011;15569;42.652;23.040;2022-09-12T00:46:47;11.00;;;9.90;;
28304;SDS011;15569;42.652;23.040;2022-09-12T00:49:32;13.45;;;11.82;;
28304;SDS011;15569;42.652;23.040;2022-09-12T00:54:37;11.18;;;9.90;;
28304;SDS011;15569;42.652;23.040;2022-09-12T00:57:07;11.13;;;10.02;;
28304;SDS011;15569;42.652;23.040;2022-09-12T00:59:57;10.20;;;8.88;;
28304;SDS011;15569;42.652;23.040;2022-09-12T01:02:36;16.85;;;9.18;;
28304;SDS011;15569;42.652;23.040;2022-09-12T01:05:02;10.95;;;8.45;;
28304;SDS011;15569;42.652;23.040;2022-09-12T01:07:27;8.88;;;7.97;;
28304;SDS011;15569;42.652;23.040;2022-09-12T01:09:53;10.00;;;9.00;;
28304;SDS011;15569;42.652;23.040;2022-09-12T01:12:19;10.13;;;8.50;;
28304;SDS011;15569;42.652;23.040;2022-09-12T01:14:44;8.57;;;7.65;;
28304;SDS011;15569;42.652;23.040;2022-09-12T01:17:11;9.85;;;8.85;;
28304;SDS011;15569;42.652;23.040;2022-09-12T01:22:28;7.45;;;6.75;;
28304;SDS011;15569;42.652;23.040;2022-09-12T01:28:26;6.32;;;5.68;;
28304;SDS011;15569;42.652;23.040;2022-09-12T01:31:07;5.88;;;5.28;;
28304;SDS011;15569;42.652;23.040;2022-09-12T01:33:58;6.97;;;6.28;;
28304;SDS011;15569;42.652;23.040;2022-09-12T01:37:12;5.53;;;4.95;;
28304;SDS011;15569;42.652;23.040;2022-09-12T01:42:09;5.35;;;4.85;;
28304;SDS011;15569;42.652;23.040;2022-09-12T01:44:56;6.88;;;4.95;;
28304;SDS011;15569;42.652;23.040;2022-09-12T01:47:40;4.93;;;4.45;;
28304;SDS011;15569;42.652;23.040;2022-09-12T01:50:17;5.03;;;4.35;;
28304;SDS011;15569;42.652;23.040;2022-09-12T01:52:48;7.32;;;4.50;;
28304;SDS011;15569;42.652;23.040;2022-09-12T01:55:24;8.23;;;5.43;;
28304;SDS011;15569;42.652;23.040;2022-09-12T02:00:39;4.60;;;4.20;;
28304;SDS011;15569;42.652;23.040;2022-09-12T02:03:19;3.65;;;3.28;;
28304;SDS011;15569;42.652;23.040;2022-09-12T02:05:53;3.72;;;3.42;;
28304;SDS011;15569;42.652;23.040;2022-09-12T02:09:25;4.72;;;3.35;;
28304;SDS011;15569;42.652;23.040;2022-09-12T02:11:27;6.10;;;3.83;;
28304;SDS011;15569;42.652;23.040;2022-09-12T02:14:00;4.00;;;3.60;;
28304;SDS011;15569;42.652;23.040;2022-09-12T02:16:44;4.80;;;4.28;;
28304;SDS011;15569;42.652;23.040;2022-09-12T02:19:19;3.13;;;2.80;;
28304;SDS011;15569;42.652;23.040;2022-09-12T02:21:53;8.50;;;3.42;;
28304;SDS011;15569;42.652;23.040;2022-09-12T02:24:36;13.13;;;3.80;;
28304;SDS011;15569;42.652;23.040;2022-09-12T02:27:15;3.30;;;3.00;;
28304;SDS011;15569;42.652;23.040;2022-09-12T02:29:45;5.60;;;3.13;;
28304;SDS011;15569;42.652;23.040;2022-09-12T02:37:44;2.90;;;2.60;;
28304;SDS011;15569;42.652;23.040;2022-09-12T02:40:33;4.13;;;3.22;;
28304;SDS011;15569;42.652;23.040;2022-09-12T02:43:00;2.65;;;2.45;;
28304;SDS011;15569;42.652;23.040;2022-09-12T02:45:27;3.25;;;2.88;;
28304;SDS011;15569;42.652;23.040;2022-09-12T02:48:02;3.38;;;2.90;;
28304;SDS011;15569;42.652;23.040;2022-09-12T02:52:57;3.10;;;2.78;;
28304;SDS011;15569;42.652;23.040;2022-09-12T02:55:28;9.20;;;3.45;;
28304;SDS011;15569;42.652;23.040;2022-09-12T02:57:55;2.90;;;2.65;;
28304;SDS011;15569;42.652;23.040;2022-09-12T03:00:20;2.65;;;2.45;;
28304;SDS011;15569;42.652;23.040;2022-09-12T03:03:01;7.70;;;2.72;;
28304;SDS011;15569;42.652;23.040;2022-09-12T03:11:24;2.75;;;2.42;;
28304;SDS011;15569;42.652;23.040;2022-09-12T03:20:16;4.43;;;2.60;;
28304;SDS011;15569;42.652;23.040;2022-09-12T03:22:52;2.95;;;2.70;;
28304;SDS011;15569;42.652;23.040;2022-09-12T03:27:56;2.80;;;2.50;;
28304;SDS011;15569;42.652;23.040;2022-09-12T03:30:25;3.58;;;2.63;;
28304;SDS011;15569;42.652;23.040;2022-09-12T03:32:52;3.22;;;2.88;;
28304;SDS011;15569;42.652;23.040;2022-09-12T03:35:19;3.22;;;2.90;;
28304;SDS011;15569;42.652;23.040;2022-09-12T03:37:46;3.33;;;2.92;;
28304;SDS011;15569;42.652;23.040;2022-09-12T03:40:13;5.55;;;2.30;;
28304;SDS011;15569;42.652;23.040;2022-09-12T03:42:39;5.43;;;2.70;;
28304;SDS011;15569;42.652;23.040;2022-09-12T03:45:05;3.47;;;2.80;;
28304;SDS011;15569;42.652;23.040;2022-09-12T03:47:31;4.13;;;2.78;;
28304;SDS011;15569;42.652;23.040;2022-09-12T03:49:57;2.90;;;2.70;;
28304;SDS011;15569;42.652;23.040;2022-09-12T03:52:22;4.57;;;2.63;;
28304;SDS011;15569;42.652;23.040;2022-09-12T03:54:48;3.80;;;3.13;;
28304;SDS011;15569;42.652;23.040;2022-09-12T03:57:13;4.95;;;2.83;;
28304;SDS011;15569;42.652;23.040;2022-09-12T03:59:39;3.78;;;2.70;;
28304;SDS011;15569;42.652;23.040;2022-09-12T04:02:04;5.97;;;3.25;;
28304;SDS011;15569;42.652;23.040;2022-09-12T04:04:30;3.92;;;2.97;;
28304;SDS011;15569;42.652;23.040;2022-09-12T04:06:56;6.15;;;3.10;;
28304;SDS011;15569;42.652;23.040;2022-09-12T04:09:21;5.28;;;2.85;;
28304;SDS011;15569;42.652;23.040;2022-09-12T04:11:47;3.20;;;2.65;;
28304;SDS011;15569;42.652;23.040;2022-09-12T04:14:12;2.35;;;2.15;;
28304;SDS011;15569;42.652;23.040;2022-09-12T04:16:37;8.40;;;2.45;;
28304;SDS011;15569;42.652;23.040;2022-09-12T04:19:03;3.40;;;3.10;;
28304;SDS011;15569;42.652;23.040;2022-09-12T04:21:28;3.95;;;3.55;;
28304;SDS011;15569;42.652;23.040;2022-09-12T04:23:55;4.63;;;3.30;;
28304;SDS011;15569;42.652;23.040;2022-09-12T04:26:20;3.13;;;2.45;;
28304;SDS011;15569;42.652;23.040;2022-09-12T04:28:46;4.18;;;2.90;;
28304;SDS011;15569;42.652;23.040;2022-09-12T04:31:13;3.55;;;2.60;;
28304;SDS011;15569;42.652;23.040;2022-09-12T04:33:41;3.40;;;2.58;;
28304;SDS011;15569;42.652;23.040;2022-09-12T04:36:12;4.95;;;3.10;;
28304;SDS011;15569;42.652;23.040;2022-09-12T04:38:40;4.75;;;2.42;;
28304;SDS011;15569;42.652;23.040;2022-09-12T04:41:14;4.20;;;3.78;;
28304;SDS011;15569;42.652;23.040;2022-09-12T04:43:41;9.30;;;6.15;;
28304;SDS011;15569;42.652;23.040;2022-09-12T04:46:09;10.10;;;3.25;;
28304;SDS011;15569;42.652;23.040;2022-09-12T04:48:35;4.95;;;3.33;;
28304;SDS011;15569;42.652;23.040;2022-09-12T04:51:05;5.13;;;3.70;;
28304;SDS011;15569;42.652;23.040;2022-09-12T04:53:35;5.40;;;3.75;;
28304;SDS011;15569;42.652;23.040;2022-09-12T04:56:02;7.68;;;4.68;;
28304;SDS011;15569;42.652;23.040;2022-09-12T04:58:29;9.25;;;4.95;;
28304;SDS011;15569;42.652;23.040;2022-09-12T05:00:55;13.70;;;5.50;;
28304;SDS011;15569;42.652;23.040;2022-09-12T05:03:38;9.45;;;5.22;;
28304;SDS011;15569;42.652;23.040;2022-09-12T05:06:05;11.45;;;5.93;;
28304;SDS011;15569;42.652;23.040;2022-09-12T05:08:32;8.25;;;4.70;;
28304;SDS011;15569;42.652;23.040;2022-09-12T05:11:09;4.90;;;4.22;;
28304;SDS011;15569;42.652;23.040;2022-09-12T05:13:36;5.07;;;4.22;;
28304;SDS011;15569;42.652;23.040;2022-09-12T05:16:02;9.88;;;4.18;;
28304;SDS011;15569;42.652;23.040;2022-09-12T05:18:32;7.05;;;4.68;;
28304;SDS011;15569;42.652;23.040;2022-09-12T05:23:25;6.25;;;3.88;;
28304;SDS011;15569;42.652;23.040;2022-09-12T05:25:52;6.50;;;4.50;;
28304;SDS011;15569;42.652;23.040;2022-09-12T05:28:19;4.93;;;3.78;;
28304;SDS011;15569;42.652;23.040;2022-09-12T05:30:45;9.70;;;5.85;;
28304;SDS011;15569;42.652;23.040;2022-09-12T05:33:11;10.18;;;5.15;;
28304;SDS011;15569;42.652;23.040;2022-09-12T05:35:37;6.53;;;4.95;;
28304;SDS011;15569;42.652;23.040;2022-09-12T05:38:03;7.35;;;5.05;;
28304;SDS011;15569;42.652;23.040;2022-09-12T05:40:30;10.48;;;5.18;;
28304;SDS011;15569;42.652;23.040;2022-09-12T05:42:55;5.22;;;4.30;;
28304;SDS011;15569;42.652;23.040;2022-09-12T05:45:21;8.73;;;5.38;;
28304;SDS011;15569;42.652;23.040;2022-09-12T05:47:47;6.32;;;4.82;;
28304;SDS011;15569;42.652;23.040;2022-09-12T05:50:13;6.65;;;4.55;;
28304;SDS011;15569;42.652;23.040;2022-09-12T05:52:38;5.40;;;3.95;;
28304;SDS011;15569;42.652;23.040;2022-09-12T05:55:04;4.45;;;3.60;;
28304;SDS011;15569;42.652;23.040;2022-09-12T05:57:29;4.90;;;4.00;;
28304;SDS011;15569;42.652;23.040;2022-09-12T05:59:55;8.98;;;3.92;;
28304;SDS011;15569;42.652;23.040;2022-09-12T06:02:20;5.00;;;3.53;;
28304;SDS011;15569;42.652;23.040;2022-09-12T06:04:45;4.68;;;4.00;;
28304;SDS011;15569;42.652;23.040;2022-09-12T06:07:11;4.68;;;3.78;;
28304;SDS011;15569;42.652;23.040;2022-09-12T06:09:37;4.07;;;3.38;;
28304;SDS011;15569;42.652;23.040;2022-09-12T06:12:02;5.25;;;3.70;;
28304;SDS011;15569;42.652;23.040;2022-09-12T06:14:28;7.57;;;3.70;;
28304;SDS011;15569;42.652;23.040;2022-09-12T06:16:54;6.10;;;3.83;;
28304;SDS011;15569;42.652;23.040;2022-09-12T06:19:20;5.97;;;4.45;;
28304;SDS011;15569;42.652;23.040;2022-09-12T06:21:47;3.85;;;3.35;;
28304;SDS011;15569;42.652;23.040;2022-09-12T06:24:13;5.15;;;3.38;;
28304;SDS011;15569;42.652;23.040;2022-09-12T06:26:43;4.18;;;3.22;;
28304;SDS011;15569;42.652;23.040;2022-09-12T06:29:09;4.30;;;3.85;;
28304;SDS011;15569;42.652;23.040;2022-09-12T06:31:38;9.40;;;6.70;;
28304;SDS011;15569;42.652;23.040;2022-09-12T06:34:06;28.38;;;22.02;;
28304;SDS011;15569;42.652;23.040;2022-09-12T06:36:33;35.70;;;22.88;;
28304;SDS011;15569;42.652;23.040;2022-09-12T06:39:06;32.92;;;24.90;;
28304;SDS011;15569;42.652;23.040;2022-09-12T06:41:34;43.33;;;27.98;;
28304;SDS011;15569;42.652;23.040;2022-09-12T06:44:00;27.17;;;23.27;;
28304;SDS011;15569;42.652;23.040;2022-09-12T06:46:26;39.53;;;33.05;;
28304;SDS011;15569;42.652;23.040;2022-09-12T06:48:52;40.00;;;34.08;;
28304;SDS011;15569;42.652;23.040;2022-09-12T06:51:19;57.05;;;40.92;;
28304;SDS011;15569;42.652;23.040;2022-09-12T06:53:45;25.48;;;18.55;;
28304;SDS011;15569;42.652;23.040;2022-09-12T06:56:12;31.02;;;27.73;;
28304;SDS011;15569;42.652;23.040;2022-09-12T06:58:43;63.13;;;47.97;;
28304;SDS011;15569;42.652;23.040;2022-09-12T07:01:13;59.80;;;39.78;;
28304;SDS011;15569;42.652;23.040;2022-09-12T07:03:40;22.90;;;19.27;;
28304;SDS011;15569;42.652;23.040;2022-09-12T07:06:07;38.70;;;34.58;;
28304;SDS011;15569;42.652;23.040;2022-09-12T07:08:34;33.45;;;29.60;;
28304;SDS011;15569;42.652;23.040;2022-09-12T07:11:14;38.92;;;34.13;;
28304;SDS011;15569;42.652;23.040;2022-09-12T07:13:44;39.05;;;33.25;;
28304;SDS011;15569;42.652;23.040;2022-09-12T07:16:10;46.15;;;36.28;;
28304;SDS011;15569;42.652;23.040;2022-09-12T07:18:37;19.60;;;16.83;;
28304;SDS011;15569;42.652;23.040;2022-09-12T07:21:04;27.88;;;25.00;;
28304;SDS011;15569;42.652;23.040;2022-09-12T07:23:31;36.50;;;31.10;;
28304;SDS011;15569;42.652;23.040;2022-09-12T07:25:57;40.13;;;28.90;;
28304;SDS011;15569;42.652;23.040;2022-09-12T07:28:24;27.15;;;24.17;;
28304;SDS011;15569;42.652;23.040;2022-09-12T07:30:51;27.05;;;24.15;;
28304;SDS011;15569;42.652;23.040;2022-09-12T07:33:18;31.02;;;25.80;;
28304;SDS011;15569;42.652;23.040;2022-09-12T07:35:45;23.98;;;21.40;;
28304;SDS011;15569;42.652;23.040;2022-09-12T07:38:10;8.52;;;7.38;;
28304;SDS011;15569;42.652;23.040;2022-09-12T07:40:36;26.77;;;19.85;;
28304;SDS011;15569;42.652;23.040;2022-09-12T07:43:01;31.35;;;22.13;;
28304;SDS011;15569;42.652;23.040;2022-09-12T07:45:26;41.75;;;34.25;;
28304;SDS011;15569;42.652;23.040;2022-09-12T07:47:52;57.05;;;40.97;;
28304;SDS011;15569;42.652;23.040;2022-09-12T07:50:18;28.25;;;25.05;;
28304;SDS011;15569;42.652;23.040;2022-09-12T07:52:43;27.77;;;24.75;;
28304;SDS011;15569;42.652;23.040;2022-09-12T07:55:09;24.00;;;21.40;;
28304;SDS011;15569;42.652;23.040;2022-09-12T07:57:34;35.08;;;23.42;;
28304;SDS011;15569;42.652;23.040;2022-09-12T08:00:00;48.72;;;32.58;;
28304;SDS011;15569;42.652;23.040;2022-09-12T08:02:25;77.32;;;43.20;;
28304;SDS011;15569;42.652;23.040;2022-09-12T08:04:50;27.65;;;18.50;;
28304;SDS011;15569;42.652;23.040;2022-09-12T08:07:16;37.28;;;28.30;;
28304;SDS011;15569;42.652;23.040;2022-09-12T08:09:43;37.40;;;29.92;;
28304;SDS011;15569;42.652;23.040;2022-09-12T08:12:08;30.88;;;27.55;;
28304;SDS011;15569;42.652;23.040;2022-09-12T08:14:34;26.42;;;23.58;;
28304;SDS011;15569;42.652;23.040;2022-09-12T08:16:59;7.85;;;6.85;;
28304;SDS011;15569;42.652;23.040;2022-09-12T08:19:24;16.90;;;11.57;;
28304;SDS011;15569;42.652;23.040;2022-09-12T08:21:50;15.88;;;12.80;;
28304;SDS011;15569;42.652;23.040;2022-09-12T08:24:15;11.60;;;8.88;;
28304;SDS011;15569;42.652;23.040;2022-09-12T08:26:41;10.18;;;6.85;;
28304;SDS011;15569;42.652;23.040;2022-09-12T08:29:07;22.80;;;19.77;;
28304;SDS011;15569;42.652;23.040;2022-09-12T08:31:32;10.18;;;8.93;;
28304;SDS011;15569;42.652;23.040;2022-09-12T08:34:00;19.52;;;17.45;;
28304;SDS011;15569;42.652;23.040;2022-09-12T08:36:27;15.77;;;14.18;;
28304;SDS011;15569;42.652;23.040;2022-09-12T08:39:03;16.17;;;14.05;;
28304;SDS011;15569;42.652;23.040;2022-09-12T08:54:58;16.02;;;12.20;;
28304;SDS011;15569;42.652;23.040;2022-09-12T08:57:25;13.40;;;12.10;;
28304;SDS011;15569;42.652;23.040;2022-09-12T08:59:51;10.55;;;8.90;;
28304;SDS011;15569;42.652;23.040;2022-09-12T09:16:48;6.70;;;5.93;;
28304;SDS011;15569;42.652;23.040;2022-09-12T09:19:22;11.88;;;9.98;;
28304;SDS011;15569;42.652;23.040;2022-09-12T09:25:05;7.95;;;7.03;;
28304;SDS011;15569;42.652;23.040;2022-09-12T09:29:46;8.48;;;7.53;;
28304;SDS011;15569;42.652;23.040;2022-09-12T09:32:17;11.55;;;9.50;;
28304;SDS011;15569;42.652;23.040;2022-09-12T09:34:46;5.78;;;4.63;;
28304;SDS011;15569;42.652;23.040;2022-09-12T09:39:48;8.00;;;7.22;;
28304;SDS011;15569;42.652;23.040;2022-09-12T09:42:27;5.82;;;4.80;;
28304;SDS011;15569;42.652;23.040;2022-09-12T09:44:56;5.63;;;4.63;;
28304;SDS011;15569;42.652;23.040;2022-09-12T09:47:24;7.10;;;5.72;;
28304;SDS011;15569;42.652;23.040;2022-09-12T09:49:50;5.15;;;4.43;;
28304;SDS011;15569;42.652;23.040;2022-09-12T09:52:15;5.78;;;5.18;;
28304;SDS011;15569;42.652;23.040;2022-09-12T09:54:54;7.03;;;6.30;;
28304;SDS011;15569;42.652;23.040;2022-09-12T10:03:25;5.15;;;4.28;;
28304;SDS011;15569;42.652;23.040;2022-09-12T10:05:53;4.78;;;4.28;;
28304;SDS011;15569;42.652;23.040;2022-09-12T10:13:23;9.25;;;6.72;;
28304;SDS011;15569;42.652;23.040;2022-09-12T10:15:55;6.32;;;5.07;;
28304;SDS011;15569;42.652;23.040;2022-09-12T10:18:37;4.65;;;4.20;;
28304;SDS011;15569;42.652;23.040;2022-09-12T10:26:36;5.55;;;4.95;;
28304;SDS011;15569;42.652;23.040;2022-09-12T10:29:09;4.70;;;4.30;;
28304;SDS011;15569;42.652;23.040;2022-09-12T10:31:43;5.13;;;4.13;;
28304;SDS011;15569;42.652;23.040;2022-09-12T10:34:18;5.18;;;4.22;;
28304;SDS011;15569;42.652;23.040;2022-09-12T10:36:47;8.20;;;4.70;;
28304;SDS011;15569;42.652;23.040;2022-09-12T10:39:17;5.68;;;4.65;;
28304;SDS011;15569;42.652;23.040;2022-09-12T10:41:43;6.35;;;4.60;;
28304;SDS011;15569;42.652;23.040;2022-09-12T10:44:26;5.53;;;4.72;;
28304;SDS011;15569;42.652;23.040;2022-09-12T10:46:54;5.50;;;4.97;;
28304;SDS011;15569;42.652;23.040;2022-09-12T10:49:23;8.82;;;6.78;;
28304;SDS011;15569;42.652;23.040;2022-09-12T10:51:51;6.40;;;5.68;;
28304;SDS011;15569;42.652;23.040;2022-09-12T10:54:20;9.30;;;6.75;;
28304;SDS011;15569;42.652;23.040;2022-09-12T11:02:50;5.28;;;4.72;;
28304;SDS011;15569;42.652;23.040;2022-09-12T11:08:07;5.15;;;4.50;;
28304;SDS011;15569;42.652;23.040;2022-09-12T11:11:06;5.45;;;4.55;;
28304;SDS011;15569;42.652;23.040;2022-09-12T11:16:51;5.88;;;4.82;;
28304;SDS011;15569;42.652;23.040;2022-09-12T11:22:00;5.50;;;4.95;;
28304;SDS011;15569;42.652;23.040;2022-09-12T11:30:13;9.15;;;5.85;;
28304;SDS011;15569;42.652;23.040;2022-09-12T11:40:44;4.88;;;4.20;;
28304;SDS011;15569;42.652;23.040;2022-09-12T11:46:04;5.60;;;4.20;;
28304;SDS011;15569;42.652;23.040;2022-09-12T11:51:08;6.28;;;4.40;;
28304;SDS011;15569;42.652;23.040;2022-09-12T11:53:42;4.53;;;4.07;;
28304;SDS011;15569;42.652;23.040;2022-09-12T11:56:18;4.03;;;3.63;;
28304;SDS011;15569;42.652;23.040;2022-09-12T11:58:49;4.32;;;3.92;;
28304;SDS011;15569;42.652;23.040;2022-09-12T12:01:22;5.82;;;4.30;;
28304;SDS011;15569;42.652;23.040;2022-09-12T12:03:57;3.58;;;3.08;;
28304;SDS011;15569;42.652;23.040;2022-09-12T12:06:30;4.05;;;3.63;;
28304;SDS011;15569;42.652;23.040;2022-09-12T12:08:58;4.43;;;3.63;;
28304;SDS011;15569;42.652;23.040;2022-09-12T12:13:53;3.35;;;3.03;;
28304;SDS011;15569;42.652;23.040;2022-09-12T12:16:32;5.32;;;4.40;;
28304;SDS011;15569;42.652;23.040;2022-09-12T12:21:45;10.60;;;6.75;;
28304;SDS011;15569;42.652;23.040;2022-09-12T12:24:25;5.35;;;4.85;;
28304;SDS011;15569;42.652;23.040;2022-09-12T12:27:00;9.23;;;8.30;;
28304;SDS011;15569;42.652;23.040;2022-09-12T12:34:29;8.00;;;7.22;;
28304;SDS011;15569;42.652;23.040;2022-09-12T12:36:55;7.57;;;6.88;;
28304;SDS011;15569;42.652;23.040;2022-09-12T12:42:01;3.97;;;3.65;;
28304;SDS011;15569;42.652;23.040;2022-09-12T12:47:18;10.27;;;7.97;;
28304;SDS011;15569;42.652;23.040;2022-09-12T12:49:52;4.07;;;2.80;;
28304;SDS011;15569;42.652;23.040;2022-09-12T12:52:21;4.95;;;4.55;;
28304;SDS011;15569;42.652;23.040;2022-09-12T12:54:49;3.45;;;3.15;;
28304;SDS011;15569;42.652;23.040;2022-09-12T12:59:50;11.85;;;9.52;;
28304;SDS011;15569;42.652;23.040;2022-09-12T13:02:37;4.45;;;4.05;;
28304;SDS011;15569;42.652;23.040;2022-09-12T13:05:09;2.50;;;2.30;;
28304;SDS011;15569;42.652;23.040;2022-09-12T13:07:42;4.35;;;2.78;;
28304;SDS011;15569;42.652;23.040;2022-09-12T13:10:19;5.57;;;3.45;;
28304;SDS011;15569;42.652;23.040;2022-09-12T13:12:47;3.13;;;2.83;;
28304;SDS011;15569;42.652;23.040;2022-09-12T13:18:05;4.30;;;3.20;;
28304;SDS011;15569;42.652;23.040;2022-09-12T13:20:35;4.22;;;3.80;;
28304;SDS011;15569;42.652;23.040;2022-09-12T13:23:19;7.22;;;5.00;;
28304;SDS011;15569;42.652;23.040;2022-09-12T13:25:58;3.70;;;3.25;;
28304;SDS011;15569;42.652;23.040;2022-09-12T13:28:26;4.82;;;4.38;;
28304;SDS011;15569;42.652;23.040;2022-09-12T13:33:30;5.28;;;4.30;;
28304;SDS011;15569;42.652;23.040;2022-09-12T13:44:37;12.77;;;8.30;;
28304;SDS011;15569;42.652;23.040;2022-09-12T13:47:08;8.02;;;5.90;;
28304;SDS011;15569;42.652;23.040;2022-09-12T13:49:39;5.30;;;4.63;;
28304;SDS011;15569;42.652;23.040;2022-09-12T13:52:06;3.85;;;3.55;;
28304;SDS011;15569;42.652;23.040;2022-09-12T13:54:44;9.20;;;5.78;;
28304;SDS011;15569;42.652;23.040;2022-09-12T13:59:56;10.48;;;7.13;;
28304;SDS011;15569;42.652;23.040;2022-09-12T14:02:23;4.90;;;4.30;;
28304;SDS011;15569;42.652;23.040;2022-09-12T14:04:52;5.72;;;3.60;;
28304;SDS011;15569;42.652;23.040;2022-09-12T14:07:51;4.43;;;3.22;;
28304;SDS011;15569;42.652;23.040;2022-09-12T14:12:58;37.27;;;28.10;;
28304;SDS011;15569;42.652;23.040;2022-09-12T14:15:27;24.35;;;17.73;;
28304;SDS011;15569;42.652;23.040;2022-09-12T14:17:55;19.65;;;17.02;;
28304;SDS011;15569;42.652;23.040;2022-09-12T14:20:25;23.25;;;18.77;;
28304;SDS011;15569;42.652;23.040;2022-09-12T14:22:55;11.55;;;10.35;;
28304;SDS011;15569;42.652;23.040;2022-09-12T14:25:33;10.63;;;9.07;;
28304;SDS011;15569;42.652;23.040;2022-09-12T14:28:03;12.85;;;11.73;;
28304;SDS011;15569;42.652;23.040;2022-09-12T14:30:31;11.75;;;10.55;;
28304;SDS011;15569;42.652;23.040;2022-09-12T14:35:49;5.85;;;5.28;;
28304;SDS011;15569;42.652;23.040;2022-09-12T14:38:20;13.65;;;9.65;;
28304;SDS011;15569;42.652;23.040;2022-09-12T14:40:59;7.18;;;6.30;;
28304;SDS011;15569;42.652;23.040;2022-09-12T14:43:31;8.38;;;5.57;;
28304;SDS011;15569;42.652;23.040;2022-09-12T14:46:02;7.93;;;5.78;;
28304;SDS011;15569;42.652;23.040;2022-09-12T14:48:41;7.43;;;6.72;;
28304;SDS011;15569;42.652;23.040;2022-09-12T14:51:27;11.80;;;8.88;;
28304;SDS011;15569;42.652;23.040;2022-09-12T14:53:56;16.13;;;10.43;;
28304;SDS011;15569;42.652;23.040;2022-09-12T14:56:36;9.45;;;7.50;;
28304;SDS011;15569;42.652;23.040;2022-09-12T15:04:49;5.93;;;5.32;;
28304;SDS011;15569;42.652;23.040;2022-09-12T15:15:32;7.28;;;4.45;;
28304;SDS011;15569;42.652;23.040;2022-09-12T15:17:57;6.07;;;5.47;;
28304;SDS011;15569;42.652;23.040;2022-09-12T15:20:23;8.00;;;5.20;;
28304;SDS011;15569;42.652;23.040;2022-09-12T15:22:48;5.65;;;4.97;;
28304;SDS011;15569;42.652;23.040;2022-09-12T15:25:14;5.85;;;5.25;;
28304;SDS011;15569;42.652;23.040;2022-09-12T15:27:40;5.35;;;4.85;;
28304;SDS011;15569;42.652;23.040;2022-09-12T15:30:09;5.90;;;4.18;;
28304;SDS011;15569;42.652;23.040;2022-09-12T15:32:37;12.02;;;8.48;;
28304;SDS011;15569;42.652;23.040;2022-09-12T15:35:12;9.10;;;8.20;;
28304;SDS011;15569;42.652;23.040;2022-09-12T15:37:38;10.32;;;8.93;;
28304;SDS011;15569;42.652;23.040;2022-09-12T15:40:04;11.63;;;10.52;;
28304;SDS011;15569;42.652;23.040;2022-09-12T15:42:29;7.22;;;6.18;;
28304;SDS011;15569;42.652;23.040;2022-09-12T15:44:55;4.35;;;3.95;;
28304;SDS011;15569;42.652;23.040;2022-09-12T15:47:20;8.98;;;8.13;;
28304;SDS011;15569;42.652;23.040;2022-09-12T15:49:47;15.25;;;13.85;;
28304;SDS011;15569;42.652;23.040;2022-09-12T15:52:14;6.20;;;5.57;;
28304;SDS011;15569;42.652;23.040;2022-09-12T15:54:40;14.63;;;12.25;;
28304;SDS011;15569;42.652;23.040;2022-09-12T15:57:06;5.03;;;3.72;;
28304;SDS011;15569;42.652;23.040;2022-09-12T15:59:32;4.35;;;4.00;;
28304;SDS011;15569;42.652;23.040;2022-09-12T16:01:58;10.10;;;9.02;;
28304;SDS011;15569;42.652;23.040;2022-09-12T16:04:24;6.10;;;4.22;;
28304;SDS011;15569;42.652;23.040;2022-09-12T16:06:52;10.20;;;6.90;;
28304;SDS011;15569;42.652;23.040;2022-09-12T16:09:18;11.40;;;8.27;;
28304;SDS011;15569;42.652;23.040;2022-09-12T16:11:44;14.98;;;12.88;;
28304;SDS011;15569;42.652;23.040;2022-09-12T16:14:13;10.10;;;9.05;;
28304;SDS011;15569;42.652;23.040;2022-09-12T16:16:39;13.07;;;11.73;;
28304;SDS011;15569;42.652;23.040;2022-09-12T16:19:05;13.55;;;11.93;;
28304;SDS011;15569;42.652;23.040;2022-09-12T16:21:30;11.43;;;10.32;;
28304;SDS011;15569;42.652;23.040;2022-09-12T16:23:56;9.13;;;8.27;;
28304;SDS011;15569;42.652;23.040;2022-09-12T16:26:21;13.38;;;11.95;;
28304;SDS011;15569;42.652;23.040;2022-09-12T16:28:47;17.20;;;15.07;;
28304;SDS011;15569;42.652;23.040;2022-09-12T16:31:18;14.23;;;12.77;;
28304;SDS011;15569;42.652;23.040;2022-09-12T16:33:44;17.85;;;14.20;;
28304;SDS011;15569;42.652;23.040;2022-09-12T16:36:10;16.02;;;14.52;;
28304;SDS011;15569;42.652;23.040;2022-09-12T16:38:55;19.30;;;17.50;;
28304;SDS011;15569;42.652;23.040;2022-09-12T16:41:21;18.27;;;16.63;;
28304;SDS011;15569;42.652;23.040;2022-09-12T16:43:51;20.15;;;18.25;;
28304;SDS011;15569;42.652;23.040;2022-09-12T16:46:17;21.95;;;19.55;;
28304;SDS011;15569;42.652;23.040;2022-09-12T16:48:45;20.95;;;18.75;;
28304;SDS011;15569;42.652;23.040;2022-09-12T16:51:16;11.95;;;10.75;;
28304;SDS011;15569;42.652;23.040;2022-09-12T16:53:44;9.80;;;6.18;;
28304;SDS011;15569;42.652;23.040;2022-09-12T16:56:10;8.82;;;4.90;;
28304;SDS011;15569;42.652;23.040;2022-09-12T16:58:37;5.32;;;4.82;;
28304;SDS011;15569;42.652;23.040;2022-09-12T17:01:09;11.05;;;10.00;;
28304;SDS011;15569;42.652;23.040;2022-09-12T17:03:36;7.70;;;7.00;;
28304;SDS011;15569;42.652;23.040;2022-09-12T17:06:05;13.18;;;11.98;;
28304;SDS011;15569;42.652;23.040;2022-09-12T17:08:34;18.05;;;16.23;;
28304;SDS011;15569;42.652;23.040;2022-09-12T17:11:06;24.83;;;17.35;;
28304;SDS011;15569;42.652;23.040;2022-09-12T17:13:33;22.55;;;20.17;;
28304;SDS011;15569;42.652;23.040;2022-09-12T17:15:58;22.00;;;19.67;;
28304;SDS011;15569;42.652;23.040;2022-09-12T17:18:24;24.25;;;21.70;;
28304;SDS011;15569;42.652;23.040;2022-09-12T17:20:50;23.45;;;21.05;;
28304;SDS011;15569;42.652;23.040;2022-09-12T17:23:15;52.88;;;36.92;;
28304;SDS011;15569;42.652;23.040;2022-09-12T17:25:48;23.88;;;21.48;;
28304;SDS011;15569;42.652;23.040;2022-09-12T17:28:15;17.77;;;16.02;;
28304;SDS011;15569;42.652;23.040;2022-09-12T17:30:41;41.88;;;27.25;;
28304;SDS011;15569;42.652;23.040;2022-09-12T17:35:33;14.02;;;12.73;;
28304;SDS011;15569;42.652;23.040;2022-09-12T17:37:59;13.75;;;12.55;;
28304;SDS011;15569;42.652;23.040;2022-09-12T17:40:25;13.95;;;12.70;;
28304;SDS011;15569;42.652;23.040;2022-09-12T17:42:50;13.18;;;10.23;;